createdAt,value
2023-04-04T00:02:03.996Z,0.33
2023-04-04T00:04:33.590Z,0.30
2023-04-04T00:07:03.273Z,0.30
2023-04-04T00:09:33.002Z,0.30
2023-04-04T00:12:02.741Z,0.37
2023-04-04T00:14:32.315Z,0.33
2023-04-04T00:17:01.841Z,0.33
2023-04-04T00:19:31.761Z,0.30
2023-04-04T00:22:01.496Z,0.30
2023-04-04T00:24:31.579Z,0.30
2023-04-04T00:27:01.143Z,0.37
2023-04-04T00:29:30.762Z,0.20
2023-04-04T00:32:00.476Z,0.20
2023-04-04T00:34:30.005Z,0.27
2023-04-04T00:36:59.534Z,0.20
2023-04-04T00:39:29.289Z,0.37
2023-04-04T00:41:59.259Z,0.30
2023-04-04T00:44:30.556Z,0.30
2023-04-04T00:47:00.146Z,0.40
2023-04-04T00:49:29.927Z,0.43
2023-04-04T00:51:59.437Z,0.30
2023-04-04T00:54:28.973Z,0.30
2023-04-04T00:56:58.536Z,0.27
2023-04-04T00:59:31.880Z,0.40
2023-04-04T01:02:02.264Z,0.30
2023-04-04T01:04:32.772Z,0.30
2023-04-04T01:07:04.576Z,0.30
2023-04-04T01:09:34.496Z,0.40
2023-04-04T01:12:05.055Z,0.30
2023-04-04T01:14:35.561Z,0.20
2023-04-04T01:17:06.714Z,0.20
2023-04-04T01:19:46.616Z,0.20
2023-04-04T01:22:19.153Z,0.40
2023-04-04T01:24:50.691Z,0.30
2023-04-04T01:27:20.381Z,0.40
2023-04-04T01:29:50.604Z,0.50
2023-04-04T01:32:29.564Z,0.40
2023-04-04T01:35:38.320Z,0.40
2023-04-04T01:38:27.337Z,0.20
2023-04-04T01:41:01.494Z,0.20
2023-04-04T01:43:33.112Z,0.40
2023-04-04T01:46:02.771Z,0.20
2023-04-04T01:48:32.355Z,0.30
2023-04-04T01:51:02.631Z,0.20
2023-04-04T01:53:32.205Z,0.20
2023-04-04T01:56:01.737Z,0.20
2023-04-04T01:58:31.281Z,0.30
2023-04-04T02:01:01.302Z,0.40
2023-04-04T02:03:30.883Z,0.33
2023-04-04T02:06:00.413Z,0.40
2023-04-04T02:08:29.937Z,0.30
2023-04-04T02:11:02.107Z,0.30
2023-04-04T02:13:31.816Z,0.40
2023-04-04T02:16:01.448Z,0.43
2023-04-04T02:18:31.027Z,0.40
2023-04-04T02:21:00.614Z,0.37
2023-04-04T02:23:30.231Z,0.40
2023-04-04T02:25:59.753Z,0.20
2023-04-04T02:28:31.447Z,0.33
2023-04-04T02:31:04.664Z,0.30
2023-04-04T02:33:34.208Z,0.20
2023-04-04T02:36:03.736Z,0.27
2023-04-04T02:38:33.390Z,0.53
2023-04-04T02:41:02.921Z,1.85
2023-04-04T02:43:32.463Z,1.40
2023-04-04T02:46:14.472Z,1.10
2023-04-04T02:48:33.874Z,1.00
2023-04-04T02:51:03.704Z,1.20
2023-04-04T02:53:33.223Z,0.63
2023-04-04T02:56:05.192Z,0.87
2023-04-04T02:58:35.615Z,0.50
2023-04-04T03:01:05.159Z,0.88
2023-04-04T03:03:34.944Z,0.70
2023-04-04T03:06:04.823Z,0.80
2023-04-04T03:08:35.689Z,0.50
2023-04-04T03:11:05.533Z,0.50
2023-04-04T03:13:35.074Z,0.40
2023-04-04T03:16:10.079Z,0.40
2023-04-04T03:18:39.662Z,0.50
2023-04-04T03:21:09.146Z,0.83
2023-04-04T03:23:38.670Z,0.27
2023-04-04T03:26:08.186Z,0.33
2023-04-04T03:28:37.712Z,0.30
2023-04-04T03:31:07.895Z,0.50
2023-04-04T03:33:41.928Z,0.30
2023-04-04T03:36:17.291Z,0.30
2023-04-04T03:38:46.903Z,0.20
2023-04-04T03:41:16.383Z,0.33
2023-04-04T03:43:45.885Z,0.40
2023-04-04T03:46:15.570Z,0.50
2023-04-04T03:48:45.111Z,0.40
2023-04-04T03:51:14.626Z,0.50
2023-04-04T03:53:44.157Z,0.30
2023-04-04T03:56:13.690Z,0.40
2023-04-04T03:58:43.228Z,0.40
2023-04-04T04:01:12.830Z,0.30
2023-04-04T04:03:42.371Z,0.30
2023-04-04T04:06:11.862Z,0.20
2023-04-04T04:08:41.406Z,0.30
2023-04-04T04:11:11.091Z,0.30
2023-04-04T04:13:40.590Z,0.30
2023-04-04T04:16:10.139Z,0.30
2023-04-04T04:18:40.407Z,0.47
2023-04-04T04:21:10.310Z,0.37
2023-04-04T04:23:39.995Z,0.40
2023-04-04T04:26:09.500Z,0.40
2023-04-04T04:28:39.101Z,0.40
2023-04-04T04:31:10.665Z,0.30
2023-04-04T04:33:40.220Z,0.30
2023-04-04T04:36:10.071Z,0.40
2023-04-04T04:38:39.640Z,0.30
2023-04-04T04:41:09.163Z,0.40
2023-04-04T04:43:38.760Z,0.30
2023-04-04T04:46:09.957Z,0.20
2023-04-04T04:48:39.538Z,0.30
2023-04-04T04:51:09.054Z,0.40
2023-04-04T04:53:39.038Z,0.53
2023-04-04T04:56:09.008Z,0.20
2023-04-04T04:58:38.559Z,0.27
2023-04-04T05:01:08.178Z,0.42
2023-04-04T05:03:37.781Z,0.33
2023-04-04T05:06:07.500Z,0.30
2023-04-04T05:08:37.179Z,0.40
2023-04-04T05:11:06.674Z,0.53
2023-04-04T05:13:36.212Z,0.40
2023-04-04T05:16:05.801Z,0.30
2023-04-04T05:18:35.545Z,0.30
2023-04-04T05:21:05.109Z,0.40
2023-04-04T05:23:34.618Z,0.43
2023-04-04T05:26:04.087Z,0.30
2023-04-04T05:28:34.661Z,0.40
2023-04-04T05:31:04.206Z,0.60
2023-04-04T05:33:33.746Z,0.40
2023-04-04T05:36:03.453Z,0.40
2023-04-04T05:38:33.209Z,0.33
2023-04-04T05:41:02.781Z,0.27
2023-04-04T05:43:32.557Z,0.30
2023-04-04T05:46:02.467Z,0.30
2023-04-04T05:48:32.071Z,0.53
2023-04-04T05:51:01.611Z,0.40
2023-04-04T05:53:31.164Z,0.50
2023-04-04T05:56:01.021Z,0.40
2023-04-04T05:58:30.518Z,0.40
2023-04-04T06:01:00.014Z,0.20
2023-04-04T06:03:29.601Z,0.33
2023-04-04T06:05:59.290Z,0.40
2023-04-04T06:08:28.849Z,0.20
2023-04-04T06:10:58.340Z,0.30
2023-04-04T06:13:27.829Z,0.50
2023-04-04T06:15:57.361Z,0.40
2023-04-04T06:18:26.903Z,0.50
2023-04-04T06:20:56.402Z,0.63
2023-04-04T06:23:26.055Z,0.77
2023-04-04T06:25:56.424Z,1.00
2023-04-04T06:28:26.226Z,0.70
2023-04-04T06:30:56.162Z,1.10
2023-04-04T06:33:25.747Z,0.50
2023-04-04T06:35:55.392Z,0.90
2023-04-04T06:38:24.908Z,0.80
2023-04-04T06:40:54.389Z,0.67
2023-04-04T06:43:25.134Z,0.80
2023-04-04T06:45:54.626Z,0.73
2023-04-04T06:48:24.147Z,1.10
2023-04-04T06:50:53.636Z,1.07
2023-04-04T06:53:23.782Z,0.70
2023-04-04T06:55:54.245Z,1.00
2023-04-04T06:58:23.754Z,0.70
2023-04-04T07:00:53.287Z,0.70
2023-04-04T07:03:24.329Z,0.90
2023-04-04T07:05:53.865Z,1.00
2023-04-04T07:08:23.345Z,0.87
2023-04-04T07:10:52.916Z,1.00
2023-04-04T07:13:23.262Z,0.83
2023-04-04T07:15:53.236Z,0.90
2023-04-04T07:18:23.292Z,0.60
2023-04-04T07:20:52.788Z,0.60
2023-04-04T07:23:22.281Z,0.70
2023-04-04T07:25:51.968Z,0.80
2023-04-04T07:28:21.842Z,0.60
2023-04-04T07:30:51.309Z,0.93
2023-04-04T07:33:21.285Z,0.70
2023-04-04T07:35:50.780Z,0.47
2023-04-04T07:38:20.265Z,0.53
2023-04-04T07:40:52.442Z,0.50
2023-04-04T07:43:22.678Z,0.50
2023-04-04T07:45:52.242Z,0.87
2023-04-04T07:48:22.916Z,0.70
2023-04-04T07:50:53.195Z,0.53
2023-04-04T07:53:22.694Z,0.50
2023-04-04T07:55:52.187Z,0.47
2023-04-04T07:58:22.156Z,0.60
2023-04-04T08:00:51.723Z,0.77
2023-04-04T08:03:22.985Z,0.53
2023-04-04T08:05:52.757Z,0.57
2023-04-04T08:08:22.656Z,0.60
2023-04-04T08:10:52.243Z,0.80
2023-04-04T08:13:21.714Z,0.47
2023-04-04T08:15:51.504Z,0.50
2023-04-04T08:18:21.448Z,0.40
2023-04-04T08:20:51.427Z,0.50
2023-04-04T08:23:20.907Z,0.40
2023-04-04T08:25:50.492Z,0.40
2023-04-04T08:28:20.021Z,0.50
2023-04-04T08:30:49.574Z,0.60
2023-04-04T08:33:19.122Z,0.50
2023-04-04T08:35:48.714Z,0.50
2023-04-04T08:38:18.378Z,0.50
2023-04-04T08:40:48.929Z,0.47
2023-04-04T08:43:19.327Z,0.40
2023-04-04T08:45:51.818Z,0.40
2023-04-04T08:48:24.546Z,0.23
2023-04-04T08:50:56.636Z,0.67
2023-04-04T08:53:26.858Z,0.30
2023-04-04T08:55:59.996Z,0.30
2023-04-04T08:58:29.926Z,0.30
2023-04-04T09:00:59.632Z,0.40
2023-04-04T09:03:32.969Z,0.60
2023-04-04T09:06:05.179Z,0.63
2023-04-04T09:08:36.143Z,0.40
2023-04-04T09:11:06.366Z,0.40
2023-04-04T09:13:37.950Z,0.30
2023-04-04T09:16:08.692Z,0.30
2023-04-04T09:18:38.201Z,0.43
2023-04-04T09:21:14.714Z,0.47
2023-04-04T09:23:45.238Z,0.27
2023-04-04T09:26:16.972Z,0.50
2023-04-04T09:28:51.127Z,0.40
2023-04-04T09:31:20.914Z,0.67
2023-04-04T09:33:53.116Z,0.30
2023-04-04T09:36:22.765Z,0.40
2023-04-04T09:38:55.333Z,0.57
2023-04-04T09:41:27.292Z,0.60
2023-04-04T09:43:59.775Z,0.40
2023-04-04T09:46:29.877Z,0.40
2023-04-04T09:49:01.338Z,0.30
2023-04-04T09:51:42.756Z,0.53
2023-04-04T09:54:26.185Z,0.30
2023-04-04T09:56:46.979Z,0.40
2023-04-04T09:59:18.360Z,0.37
2023-04-04T10:01:49.969Z,0.20
2023-04-04T10:04:21.058Z,0.60
2023-04-04T10:06:50.598Z,0.50
2023-04-04T10:09:20.087Z,0.53
2023-04-04T10:11:50.146Z,0.37
2023-04-04T10:14:20.075Z,0.33
2023-04-04T10:16:49.862Z,0.70
2023-04-04T10:19:20.667Z,0.53
2023-04-04T10:21:50.699Z,0.40
2023-04-04T10:24:20.383Z,0.53
2023-04-04T10:26:49.861Z,0.40
2023-04-04T10:29:19.516Z,0.47
2023-04-04T10:31:52.272Z,0.53
2023-04-04T10:34:44.111Z,0.83
2023-04-04T10:37:21.587Z,0.43
2023-04-04T10:40:12.810Z,0.70
2023-04-04T10:42:47.453Z,0.40
2023-04-04T10:45:21.690Z,0.30
2023-04-04T10:47:50.134Z,0.43
2023-04-04T10:50:21.897Z,0.50
2023-04-04T10:52:52.374Z,0.60
2023-04-04T10:55:22.109Z,0.47
2023-04-04T10:57:55.290Z,0.47
2023-04-04T11:00:25.473Z,0.53
2023-04-04T11:02:59.956Z,0.33
2023-04-04T11:05:43.653Z,0.40
2023-04-04T11:08:21.175Z,0.50
2023-04-04T11:10:52.899Z,0.40
2023-04-04T11:13:35.747Z,0.30
2023-04-04T11:16:15.796Z,0.47
2023-04-04T11:18:49.868Z,0.30
2023-04-04T11:21:24.383Z,0.40
2023-04-04T11:24:07.117Z,0.40
2023-04-04T11:26:39.667Z,0.43
2023-04-04T11:29:09.692Z,0.40
2023-04-04T11:31:46.289Z,0.40
2023-04-04T11:34:19.655Z,0.40
2023-04-04T11:36:54.075Z,0.37
2023-04-04T11:39:30.886Z,0.50
2023-04-04T11:42:05.075Z,0.50
2023-04-04T11:44:37.627Z,0.27
2023-04-04T11:47:13.397Z,0.30
2023-04-04T11:49:47.058Z,0.20
2023-04-04T11:52:18.919Z,0.20
2023-04-04T11:54:50.056Z,0.30
2023-04-04T11:57:22.595Z,0.20
2023-04-04T11:59:53.588Z,0.30
2023-04-04T12:02:30.108Z,0.30
2023-04-04T12:04:59.932Z,0.30
2023-04-04T12:07:31.984Z,0.30
2023-04-04T12:10:01.441Z,0.30
2023-04-04T12:12:31.062Z,0.50
2023-04-04T12:15:10.876Z,0.10
2023-04-04T12:17:34.539Z,0.40
2023-04-04T12:20:04.908Z,0.30
2023-04-04T12:22:38.606Z,0.30
2023-04-04T12:25:09.180Z,0.40
2023-04-04T12:27:39.830Z,0.50
2023-04-04T12:30:12.567Z,0.67
2023-04-04T12:32:44.011Z,0.70
2023-04-04T12:35:15.255Z,0.70
2023-04-04T12:38:10.876Z,0.50
2023-04-04T12:40:42.555Z,0.33
2023-04-04T12:43:15.114Z,0.50
2023-04-04T12:45:46.052Z,0.40
2023-04-04T12:48:18.167Z,0.40
2023-04-04T12:50:59.334Z,0.37
2023-04-04T12:53:32.303Z,0.50
2023-04-04T12:56:06.799Z,0.40
2023-04-04T12:58:37.729Z,0.63
2023-04-04T13:01:08.483Z,0.40
2023-04-04T13:03:38.265Z,0.40
2023-04-04T13:06:19.818Z,0.30
2023-04-04T13:08:55.417Z,0.77
2023-04-04T13:11:25.553Z,0.90
2023-04-04T13:14:05.688Z,0.40
2023-04-04T13:16:37.417Z,0.50
2023-04-04T13:19:07.116Z,0.60
2023-04-04T13:21:37.193Z,0.40
2023-04-04T13:24:06.739Z,0.50
2023-04-04T13:26:36.328Z,0.60
2023-04-04T13:29:05.889Z,0.40
2023-04-04T13:31:35.392Z,0.30
2023-04-04T13:34:04.883Z,0.50
2023-04-04T13:36:34.425Z,0.80
2023-04-04T13:39:03.871Z,0.63
2023-04-04T13:41:33.423Z,0.93
2023-04-04T13:44:02.930Z,0.60
2023-04-04T13:46:32.495Z,1.10
2023-04-04T13:49:02.378Z,0.67
2023-04-04T13:51:32.283Z,0.80
2023-04-04T13:54:01.763Z,0.60
2023-04-04T13:56:31.445Z,0.37
2023-04-04T13:59:01.234Z,0.40
2023-04-04T14:01:31.096Z,0.70
2023-04-04T14:04:05.259Z,0.40
2023-04-04T14:06:31.883Z,0.37
2023-04-04T14:09:01.392Z,0.30
2023-04-04T14:11:31.343Z,0.50
2023-04-04T14:14:00.862Z,0.50
2023-04-04T14:16:31.007Z,0.40
2023-04-04T14:19:00.566Z,0.40
2023-04-04T14:21:30.937Z,0.50
2023-04-04T14:24:00.709Z,0.63
2023-04-04T14:26:30.274Z,0.50
2023-04-04T14:28:59.760Z,0.30
2023-04-04T14:31:31.563Z,0.47
2023-04-04T14:34:01.906Z,0.90
2023-04-04T14:36:31.794Z,0.80
2023-04-04T14:39:01.447Z,0.53
2023-04-04T14:41:30.952Z,0.40
2023-04-04T14:44:00.847Z,0.80
2023-04-04T14:46:30.852Z,0.80
2023-04-04T14:49:00.809Z,0.53
2023-04-04T14:51:32.214Z,0.60
2023-04-04T14:54:02.420Z,0.70
2023-04-04T14:56:32.056Z,0.50
2023-04-04T14:59:02.734Z,0.40
2023-04-04T15:01:32.790Z,0.20
2023-04-04T15:04:02.620Z,0.30
2023-04-04T15:06:33.745Z,0.50
2023-04-04T15:09:06.032Z,0.40
2023-04-04T15:11:36.108Z,0.50
2023-04-04T15:14:06.085Z,0.63
2023-04-04T15:16:36.005Z,0.40
2023-04-04T15:19:05.520Z,0.50
2023-04-04T15:21:35.003Z,0.43
2023-04-04T15:24:04.773Z,0.30
2023-04-04T15:26:34.294Z,0.43
2023-04-04T15:29:04.725Z,0.57
2023-04-04T15:31:34.306Z,0.63
2023-04-04T15:34:03.802Z,0.40
2023-04-04T15:36:34.150Z,0.57
2023-04-04T15:39:03.640Z,0.33
2023-04-04T15:41:33.293Z,0.30
2023-04-04T15:44:02.818Z,0.50
2023-04-04T15:46:33.205Z,0.53
2023-04-04T15:49:02.749Z,0.60
2023-04-04T15:51:33.150Z,0.43
2023-04-04T15:54:02.680Z,0.43
2023-04-04T15:56:32.192Z,0.60
2023-04-04T15:59:01.724Z,0.40
2023-04-04T16:01:32.891Z,0.40
2023-04-04T16:04:03.063Z,0.50
2023-04-04T16:06:32.800Z,0.30
2023-04-04T16:09:02.311Z,0.23
2023-04-04T16:11:31.820Z,0.50
2023-04-04T16:14:01.308Z,0.20
2023-04-04T16:16:31.064Z,0.33
2023-04-04T16:19:00.613Z,0.30
2023-04-04T16:21:30.112Z,0.40
2023-04-04T16:23:59.836Z,0.30
2023-04-04T16:26:29.332Z,0.33
2023-04-04T16:28:58.877Z,0.50
2023-04-04T16:31:28.422Z,0.50
2023-04-04T16:33:58.021Z,0.40
2023-04-04T16:36:27.576Z,0.30
2023-04-04T16:38:58.699Z,0.43
2023-04-04T16:41:31.424Z,0.40
2023-04-04T16:44:01.091Z,0.40
2023-04-04T16:46:30.733Z,0.20
2023-04-04T16:49:00.368Z,0.30
2023-04-04T16:51:31.705Z,0.17
2023-04-04T16:54:01.466Z,0.30
2023-04-04T16:56:31.339Z,0.30
2023-04-04T16:59:00.848Z,0.20
2023-04-04T17:01:31.811Z,0.30
2023-04-04T17:04:01.477Z,0.10
2023-04-04T17:06:31.380Z,0.30
2023-04-04T17:09:00.925Z,0.33
2023-04-04T17:11:31.066Z,0.40
2023-04-04T17:14:00.551Z,0.30
2023-04-04T17:16:30.073Z,0.27
2023-04-04T17:18:59.611Z,0.40
2023-04-04T17:21:29.122Z,0.40
2023-04-04T17:23:58.618Z,0.30
2023-04-04T17:26:28.970Z,0.30
2023-04-04T17:28:58.446Z,0.50
2023-04-04T17:31:27.969Z,0.20
2023-04-04T17:33:57.496Z,0.20
2023-04-04T17:36:27.230Z,0.10
2023-04-04T17:38:56.866Z,0.10
2023-04-04T17:41:26.373Z,0.40
2023-04-04T17:43:55.965Z,0.20
2023-04-04T17:46:25.544Z,0.30
2023-04-04T17:48:55.504Z,0.40
2023-04-04T17:51:25.090Z,0.30
2023-04-04T17:53:54.854Z,0.20
2023-04-04T17:56:26.605Z,0.40
2023-04-04T17:58:57.737Z,0.23
2023-04-04T18:01:28.217Z,0.40
2023-04-04T18:03:58.058Z,0.30
2023-04-04T18:06:27.686Z,0.20
2023-04-04T18:08:57.164Z,0.10
2023-04-04T18:11:28.109Z,0.10
2023-04-04T18:13:57.823Z,0.20
2023-04-04T18:16:27.455Z,0.30
2023-04-04T18:18:57.030Z,0.20
2023-04-04T18:21:27.823Z,0.20
2023-04-04T18:23:57.840Z,0.30
2023-04-04T18:26:27.738Z,0.30
2023-04-04T18:28:57.215Z,0.30
2023-04-04T18:31:28.013Z,0.20
2023-04-04T18:33:57.527Z,0.30
2023-04-04T18:36:27.020Z,0.50
2023-04-04T18:38:56.576Z,0.30
2023-04-04T18:41:26.213Z,0.17
2023-04-04T18:43:55.862Z,0.23
2023-04-04T18:46:25.399Z,0.20
2023-04-04T18:48:54.925Z,0.20
2023-04-04T18:51:24.421Z,0.27
2023-04-04T18:53:53.914Z,0.30
2023-04-04T18:56:23.413Z,0.33
2023-04-04T18:58:52.910Z,0.50
2023-04-04T19:01:22.564Z,0.60
2023-04-04T19:03:53.808Z,0.40
2023-04-04T19:06:28.301Z,0.60
2023-04-04T19:08:59.986Z,0.30
2023-04-04T19:11:29.468Z,0.50
2023-04-04T19:13:59.939Z,0.30
2023-04-04T19:16:29.509Z,0.47
2023-04-04T19:18:59.009Z,0.40
2023-04-04T19:21:28.504Z,0.30
2023-04-04T19:23:58.066Z,0.40
2023-04-04T19:26:27.564Z,0.27
2023-04-04T19:28:57.062Z,0.30
2023-04-04T19:31:30.301Z,0.50
2023-04-04T19:34:02.178Z,0.40
2023-04-04T19:36:36.960Z,0.30
2023-04-04T19:39:08.915Z,0.20
2023-04-04T19:41:40.531Z,0.30
2023-04-04T19:44:17.475Z,0.23
2023-04-04T19:46:47.724Z,0.30
2023-04-04T19:49:19.194Z,0.30
2023-04-04T19:51:55.532Z,0.20
2023-04-04T19:54:36.468Z,0.20
2023-04-04T19:57:11.153Z,0.23
2023-04-04T20:00:13.319Z,0.40
2023-04-04T20:02:52.671Z,1.12
2023-04-04T20:05:35.641Z,0.80
2023-04-04T20:08:08.134Z,0.77
2023-04-04T20:10:42.447Z,0.57
2023-04-04T20:13:13.956Z,0.40
2023-04-04T20:15:59.750Z,0.60
2023-04-04T20:18:34.532Z,0.30
2023-04-04T20:21:13.438Z,0.40
2023-04-04T20:23:49.940Z,0.40
2023-04-04T20:26:48.172Z,0.47
2023-04-04T20:29:21.857Z,0.20
2023-04-04T20:31:58.677Z,0.40
2023-04-04T20:34:46.302Z,0.27
2023-04-04T20:37:26.551Z,0.30
2023-04-04T20:40:04.032Z,0.30
2023-04-04T20:42:42.455Z,0.40
2023-04-04T20:45:42.605Z,0.40
2023-04-04T20:48:37.187Z,0.30
2023-04-04T20:51:34.241Z,0.23
2023-04-04T20:54:05.508Z,0.40
2023-04-04T20:56:55.613Z,0.37
2023-04-04T20:59:32.412Z,0.40
2023-04-04T21:02:23.539Z,0.37
2023-04-04T21:04:53.164Z,0.30
2023-04-04T21:07:42.292Z,0.40
2023-04-04T21:10:30.890Z,0.40
2023-04-04T21:13:02.045Z,0.40
2023-04-04T21:15:37.564Z,0.33
2023-04-04T21:18:12.560Z,0.30
2023-04-04T21:20:55.353Z,0.28
2023-04-04T21:23:33.518Z,0.20
2023-04-04T21:26:12.187Z,0.23
2023-04-04T21:28:46.673Z,0.30
2023-04-04T21:31:19.308Z,0.23
2023-04-04T21:33:53.556Z,0.40
2023-04-04T21:36:29.892Z,0.30
2023-04-04T21:39:18.003Z,0.20
2023-04-04T21:41:49.782Z,0.27
2023-04-04T21:44:19.534Z,0.30
2023-04-04T21:46:49.738Z,0.30
2023-04-04T21:49:19.485Z,0.27
2023-04-04T21:51:48.980Z,0.20
2023-04-04T21:54:19.360Z,0.23
2023-04-04T21:56:49.187Z,0.30
2023-04-04T21:59:18.698Z,0.47
2023-04-04T22:01:48.287Z,0.30
2023-04-04T22:04:17.871Z,0.20
2023-04-04T22:06:47.720Z,0.30
2023-04-04T22:09:17.209Z,0.50
2023-04-04T22:11:46.779Z,0.30
2023-04-04T22:14:17.768Z,0.50
2023-04-04T22:16:47.735Z,0.40
2023-04-04T22:19:17.299Z,0.17
2023-04-04T22:21:48.424Z,0.33
2023-04-04T22:24:18.857Z,0.20
2023-04-04T22:26:50.690Z,0.27
2023-04-04T22:29:20.150Z,0.50
2023-04-04T22:31:50.168Z,0.30
2023-04-04T22:34:19.697Z,0.50
2023-04-04T22:36:49.183Z,0.30
2023-04-04T22:39:20.460Z,0.43
2023-04-04T22:41:50.027Z,0.50
2023-04-04T22:44:19.496Z,0.50
2023-04-04T22:46:48.982Z,0.50
2023-04-04T22:49:18.484Z,0.50
2023-04-04T22:51:47.960Z,0.43
2023-04-04T22:54:17.880Z,0.50
2023-04-04T22:56:47.377Z,0.57
2023-04-04T22:59:16.898Z,0.40
2023-04-04T23:01:46.525Z,0.40
2023-04-04T23:04:16.301Z,0.47
2023-04-04T23:06:46.343Z,0.30
2023-04-04T23:09:16.018Z,0.53
2023-04-04T23:11:46.893Z,0.30
2023-04-04T23:14:18.099Z,0.87
2023-04-04T23:16:48.934Z,0.83
2023-04-04T23:19:18.406Z,0.73
2023-04-04T23:21:47.930Z,1.10
2023-04-04T23:24:17.392Z,1.00
2023-04-04T23:26:47.263Z,0.70
2023-04-04T23:29:17.205Z,1.00
2023-04-04T23:31:46.788Z,1.30
2023-04-04T23:34:16.250Z,0.63
2023-04-04T23:36:45.748Z,0.60
2023-04-04T23:39:15.795Z,0.30
2023-04-04T23:41:45.933Z,0.40
2023-04-04T23:44:17.072Z,0.40
2023-04-04T23:46:47.533Z,0.20
2023-04-04T23:49:17.341Z,0.30
2023-04-04T23:51:47.245Z,0.40
2023-04-04T23:54:16.763Z,0.40
2023-04-04T23:56:46.239Z,0.30
2023-04-04T23:59:16.179Z,0.30
